sensor_id;sensor_type;location;lat;lon;timestamp;temperature;humidity
46900;DHT22;32647;49.382;7.078;2022-09-09T00:08:20;15.10;99.90
46900;DHT22;32647;49.382;7.078;2022-09-09T00:11:10;15.10;99.90
46900;DHT22;32647;49.382;7.078;2022-09-09T00:14:00;15.00;99.90
46900;DHT22;32647;49.382;7.078;2022-09-09T00:16:54;15.00;99.90
46900;DHT22;32647;49.382;7.078;2022-09-09T00:19:53;14.90;99.90
46900;DHT22;32647;49.382;7.078;2022-09-09T00:22:49;15.00;99.90
46900;DHT22;32647;49.382;7.078;2022-09-09T00:25:49;15.00;99.90
46900;DHT22;32647;49.382;7.078;2022-09-09T00:28:49;15.00;99.90
46900;DHT22;32647;49.382;7.078;2022-09-09T00:31:36;15.00;99.90
46900;DHT22;32647;49.382;7.078;2022-09-09T00:34:23;15.00;99.90
46900;DHT22;32647;49.382;7.078;2022-09-09T00:37:10;15.00;99.90
46900;DHT22;32647;49.382;7.078;2022-09-09T00:39:59;15.00;99.90
46900;DHT22;32647;49.382;7.078;2022-09-09T00:42:49;14.90;99.90
46900;DHT22;32647;49.382;7.078;2022-09-09T00:57:53;15.00;99.90
46900;DHT22;32647;49.382;7.078;2022-09-09T01:01:02;15.00;99.90
46900;DHT22;32647;49.382;7.078;2022-09-09T01:03:56;15.00;99.90
46900;DHT22;32647;49.382;7.078;2022-09-09T01:06:45;15.00;99.90
46900;DHT22;32647;49.382;7.078;2022-09-09T01:12:42;14.70;99.90
46900;DHT22;32647;49.382;7.078;2022-09-09T01:15:30;14.70;99.90
46900;DHT22;32647;49.382;7.078;2022-09-09T01:18:20;14.50;99.90
46900;DHT22;32647;49.382;7.078;2022-09-09T01:21:26;14.40;99.90
46900;DHT22;32647;49.382;7.078;2022-09-09T01:24:38;14.40;99.90
46900;DHT22;32647;49.382;7.078;2022-09-09T01:27:26;14.30;99.90
46900;DHT22;32647;49.382;7.078;2022-09-09T01:30:14;14.30;99.90
46900;DHT22;32647;49.382;7.078;2022-09-09T01:33:01;14.40;99.90
46900;DHT22;32647;49.382;7.078;2022-09-09T01:36:17;14.40;99.90
46900;DHT22;32647;49.382;7.078;2022-09-09T01:39:03;14.50;99.90
46900;DHT22;32647;49.382;7.078;2022-09-09T01:41:49;14.70;99.90
46900;DHT22;32647;49.382;7.078;2022-09-09T01:44:36;14.80;99.90
46900;DHT22;32647;49.382;7.078;2022-09-09T01:47:23;14.80;99.90
46900;DHT22;32647;49.382;7.078;2022-09-09T01:50:13;14.80;99.90
46900;DHT22;32647;49.382;7.078;2022-09-09T01:53:01;14.70;99.90
46900;DHT22;32647;49.382;7.078;2022-09-09T01:59:41;14.80;99.90
46900;DHT22;32647;49.382;7.078;2022-09-09T02:02:22;14.80;99.90
46900;DHT22;32647;49.382;7.078;2022-09-09T02:05:23;14.90;99.90
46900;DHT22;32647;49.382;7.078;2022-09-09T02:08:20;14.90;99.90
46900;DHT22;32647;49.382;7.078;2022-09-09T02:11:18;15.00;99.90
46900;DHT22;32647;49.382;7.078;2022-09-09T02:14:10;15.10;99.90
46900;DHT22;32647;49.382;7.078;2022-09-09T02:17:03;15.10;99.90
46900;DHT22;32647;49.382;7.078;2022-09-09T02:19:56;15.10;99.90
46900;DHT22;32647;49.382;7.078;2022-09-09T02:22:49;15.10;99.90
46900;DHT22;32647;49.382;7.078;2022-09-09T02:25:36;15.20;99.90
46900;DHT22;32647;49.382;7.078;2022-09-09T02:28:25;15.10;99.90
46900;DHT22;32647;49.382;7.078;2022-09-09T02:31:12;15.10;99.90
46900;DHT22;32647;49.382;7.078;2022-09-09T02:34:01;15.10;99.90
46900;DHT22;32647;49.382;7.078;2022-09-09T02:36:50;15.10;99.90
46900;DHT22;32647;49.382;7.078;2022-09-09T02:39:38;14.90;99.90
46900;DHT22;32647;49.382;7.078;2022-09-09T02:42:24;14.80;99.90
46900;DHT22;32647;49.382;7.078;2022-09-09T02:45:14;14.80;99.90
46900;DHT22;32647;49.382;7.078;2022-09-09T02:56:38;14.70;99.90
46900;DHT22;32647;49.382;7.078;2022-09-09T02:59:26;14.70;99.90
46900;DHT22;32647;49.382;7.078;2022-09-09T03:02:12;14.50;99.90
46900;DHT22;32647;49.382;7.078;2022-09-09T03:04:58;14.40;99.90
46900;DHT22;32647;49.382;7.078;2022-09-09T03:07:44;14.30;99.90
46900;DHT22;32647;49.382;7.078;2022-09-09T03:10:31;14.40;99.90
46900;DHT22;32647;49.382;7.078;2022-09-09T03:13:17;14.40;99.90
46900;DHT22;32647;49.382;7.078;2022-09-09T03:16:05;14.50;99.90
46900;DHT22;32647;49.382;7.078;2022-09-09T03:18:51;14.50;99.90
46900;DHT22;32647;49.382;7.078;2022-09-09T03:21:37;14.50;99.90
46900;DHT22;32647;49.382;7.078;2022-09-09T03:24:24;14.60;99.90
46900;DHT22;32647;49.382;7.078;2022-09-09T03:27:10;14.40;99.90
46900;DHT22;32647;49.382;7.078;2022-09-09T03:29:56;14.40;99.90
46900;DHT22;32647;49.382;7.078;2022-09-09T03:32:43;14.50;99.90
46900;DHT22;32647;49.382;7.078;2022-09-09T03:35:30;14.60;99.90
46900;DHT22;32647;49.382;7.078;2022-09-09T03:38:16;14.60;99.90
46900;DHT22;32647;49.382;7.078;2022-09-09T03:41:08;14.60;99.90
46900;DHT22;32647;49.382;7.078;2022-09-09T03:43:55;14.70;99.90
46900;DHT22;32647;49.382;7.078;2022-09-09T03:46:41;14.70;99.90
46900;DHT22;32647;49.382;7.078;2022-09-09T03:49:27;14.80;99.90
46900;DHT22;32647;49.382;7.078;2022-09-09T03:52:16;14.70;99.90
46900;DHT22;32647;49.382;7.078;2022-09-09T03:55:02;14.70;99.90
46900;DHT22;32647;49.382;7.078;2022-09-09T03:57:48;14.70;99.90
46900;DHT22;32647;49.382;7.078;2022-09-09T04:00:35;14.80;99.90
46900;DHT22;32647;49.382;7.078;2022-09-09T04:03:21;14.80;99.90
46900;DHT22;32647;49.382;7.078;2022-09-09T04:06:08;14.70;99.90
46900;DHT22;32647;49.382;7.078;2022-09-09T04:08:55;14.80;99.90
46900;DHT22;32647;49.382;7.078;2022-09-09T04:11:41;14.80;99.90
46900;DHT22;32647;49.382;7.078;2022-09-09T04:14:27;14.90;99.90
46900;DHT22;32647;49.382;7.078;2022-09-09T04:17:14;15.00;99.90
46900;DHT22;32647;49.382;7.078;2022-09-09T04:20:00;15.00;99.90
46900;DHT22;32647;49.382;7.078;2022-09-09T04:22:47;14.90;99.90
46900;DHT22;32647;49.382;7.078;2022-09-09T04:25:33;14.90;99.90
46900;DHT22;32647;49.382;7.078;2022-09-09T04:28:21;14.90;99.90
46900;DHT22;32647;49.382;7.078;2022-09-09T04:31:10;14.80;99.90
46900;DHT22;32647;49.382;7.078;2022-09-09T04:34:00;14.80;99.90
46900;DHT22;32647;49.382;7.078;2022-09-09T04:36:50;14.90;99.90
46900;DHT22;32647;49.382;7.078;2022-09-09T04:39:37;14.90;99.90
46900;DHT22;32647;49.382;7.078;2022-09-09T04:42:23;14.90;99.90
46900;DHT22;32647;49.382;7.078;2022-09-09T04:45:09;14.90;99.90
46900;DHT22;32647;49.382;7.078;2022-09-09T04:47:57;14.90;99.90
46900;DHT22;32647;49.382;7.078;2022-09-09T04:50:43;15.00;99.90
46900;DHT22;32647;49.382;7.078;2022-09-09T04:53:29;14.90;99.90
46900;DHT22;32647;49.382;7.078;2022-09-09T04:56:16;14.90;99.90
46900;DHT22;32647;49.382;7.078;2022-09-09T04:59:02;14.90;99.90
46900;DHT22;32647;49.382;7.078;2022-09-09T05:01:48;14.80;99.90
46900;DHT22;32647;49.382;7.078;2022-09-09T05:04:35;14.90;99.90
46900;DHT22;32647;49.382;7.078;2022-09-09T05:07:21;14.80;99.90
46900;DHT22;32647;49.382;7.078;2022-09-09T05:10:08;14.80;99.90
46900;DHT22;32647;49.382;7.078;2022-09-09T05:12:54;14.90;99.90
46900;DHT22;32647;49.382;7.078;2022-09-09T05:15:40;14.90;99.90
46900;DHT22;32647;49.382;7.078;2022-09-09T05:18:26;14.80;99.90
46900;DHT22;32647;49.382;7.078;2022-09-09T05:23:47;14.80;99.90
46900;DHT22;32647;49.382;7.078;2022-09-09T05:26:33;14.90;99.90
46900;DHT22;32647;49.382;7.078;2022-09-09T05:29:19;14.90;99.90
46900;DHT22;32647;49.382;7.078;2022-09-09T05:32:05;15.00;99.90
46900;DHT22;32647;49.382;7.078;2022-09-09T05:34:51;15.10;99.90
46900;DHT22;32647;49.382;7.078;2022-09-09T05:37:38;15.00;99.90
46900;DHT22;32647;49.382;7.078;2022-09-09T05:40:24;15.10;99.90
46900;DHT22;32647;49.382;7.078;2022-09-09T05:43:10;15.10;99.90
46900;DHT22;32647;49.382;7.078;2022-09-09T05:46:11;15.10;99.90
46900;DHT22;32647;49.382;7.078;2022-09-09T05:48:57;15.10;99.90
46900;DHT22;32647;49.382;7.078;2022-09-09T05:51:43;15.10;99.90
46900;DHT22;32647;49.382;7.078;2022-09-09T05:54:30;15.10;99.90
46900;DHT22;32647;49.382;7.078;2022-09-09T05:57:16;15.20;99.90
46900;DHT22;32647;49.382;7.078;2022-09-09T06:00:03;15.20;99.90
46900;DHT22;32647;49.382;7.078;2022-09-09T06:02:52;15.30;99.90
46900;DHT22;32647;49.382;7.078;2022-09-09T06:05:39;15.30;99.90
46900;DHT22;32647;49.382;7.078;2022-09-09T06:08:25;15.30;99.90
46900;DHT22;32647;49.382;7.078;2022-09-09T06:11:13;15.30;99.90
46900;DHT22;32647;49.382;7.078;2022-09-09T06:14:00;15.20;99.90
46900;DHT22;32647;49.382;7.078;2022-09-09T06:16:46;15.30;99.90
46900;DHT22;32647;49.382;7.078;2022-09-09T06:19:32;15.30;99.90
46900;DHT22;32647;49.382;7.078;2022-09-09T06:22:18;15.30;99.90
46900;DHT22;32647;49.382;7.078;2022-09-09T06:25:04;15.40;99.90
46900;DHT22;32647;49.382;7.078;2022-09-09T06:27:50;15.30;99.90
46900;DHT22;32647;49.382;7.078;2022-09-09T06:30:36;15.40;99.90
46900;DHT22;32647;49.382;7.078;2022-09-09T06:33:22;15.40;99.90
46900;DHT22;32647;49.382;7.078;2022-09-09T06:36:14;15.50;99.90
46900;DHT22;32647;49.382;7.078;2022-09-09T06:39:01;15.60;99.90
46900;DHT22;32647;49.382;7.078;2022-09-09T06:41:47;15.60;99.90
46900;DHT22;32647;49.382;7.078;2022-09-09T06:44:34;15.50;99.90
46900;DHT22;32647;49.382;7.078;2022-09-09T06:47:20;15.50;99.90
46900;DHT22;32647;49.382;7.078;2022-09-09T06:50:06;15.60;99.90
46900;DHT22;32647;49.382;7.078;2022-09-09T06:52:53;15.60;99.90
46900;DHT22;32647;49.382;7.078;2022-09-09T06:55:39;15.70;99.90
46900;DHT22;32647;49.382;7.078;2022-09-09T06:58:26;15.70;99.90
46900;DHT22;32647;49.382;7.078;2022-09-09T07:01:13;15.60;99.90
46900;DHT22;32647;49.382;7.078;2022-09-09T07:04:00;15.70;99.90
46900;DHT22;32647;49.382;7.078;2022-09-09T07:06:47;15.70;99.90
46900;DHT22;32647;49.382;7.078;2022-09-09T07:09:33;15.80;99.90
46900;DHT22;32647;49.382;7.078;2022-09-09T07:12:19;15.90;99.90
46900;DHT22;32647;49.382;7.078;2022-09-09T07:15:06;16.00;99.90
46900;DHT22;32647;49.382;7.078;2022-09-09T07:17:52;16.00;99.90
46900;DHT22;32647;49.382;7.078;2022-09-09T07:20:39;16.00;99.90
46900;DHT22;32647;49.382;7.078;2022-09-09T07:23:25;16.10;99.90
46900;DHT22;32647;49.382;7.078;2022-09-09T07:26:17;16.00;99.90
46900;DHT22;32647;49.382;7.078;2022-09-09T07:29:05;16.10;99.90
46900;DHT22;32647;49.382;7.078;2022-09-09T07:31:51;16.10;99.90
46900;DHT22;32647;49.382;7.078;2022-09-09T07:34:37;16.30;99.90
46900;DHT22;32647;49.382;7.078;2022-09-09T07:37:23;16.40;99.90
46900;DHT22;32647;49.382;7.078;2022-09-09T07:40:10;16.30;99.90
46900;DHT22;32647;49.382;7.078;2022-09-09T07:42:55;16.40;99.90
46900;DHT22;32647;49.382;7.078;2022-09-09T07:45:41;16.50;99.90
46900;DHT22;32647;49.382;7.078;2022-09-09T07:48:28;16.40;99.90
46900;DHT22;32647;49.382;7.078;2022-09-09T07:51:15;16.50;99.90
46900;DHT22;32647;49.382;7.078;2022-09-09T07:54:07;16.70;99.90
46900;DHT22;32647;49.382;7.078;2022-09-09T07:56:55;16.80;99.90
46900;DHT22;32647;49.382;7.078;2022-09-09T07:59:41;16.80;99.90
46900;DHT22;32647;49.382;7.078;2022-09-09T08:02:26;16.90;99.90
46900;DHT22;32647;49.382;7.078;2022-09-09T08:05:14;16.90;99.90
46900;DHT22;32647;49.382;7.078;2022-09-09T08:08:02;16.80;99.90
46900;DHT22;32647;49.382;7.078;2022-09-09T08:10:49;16.80;99.90
46900;DHT22;32647;49.382;7.078;2022-09-09T08:13:36;16.70;99.90
46900;DHT22;32647;49.382;7.078;2022-09-09T08:16:27;16.80;99.90
46900;DHT22;32647;49.382;7.078;2022-09-09T08:19:14;16.90;99.90
46900;DHT22;32647;49.382;7.078;2022-09-09T08:22:03;16.70;99.90
46900;DHT22;32647;49.382;7.078;2022-09-09T08:24:49;16.70;99.90
46900;DHT22;32647;49.382;7.078;2022-09-09T08:27:35;16.70;99.90
46900;DHT22;32647;49.382;7.078;2022-09-09T08:30:22;16.80;99.90
46900;DHT22;32647;49.382;7.078;2022-09-09T08:33:09;17.00;99.90
46900;DHT22;32647;49.382;7.078;2022-09-09T08:35:55;17.10;99.90
46900;DHT22;32647;49.382;7.078;2022-09-09T08:38:42;17.20;99.90
46900;DHT22;32647;49.382;7.078;2022-09-09T08:48:17;17.30;99.90
46900;DHT22;32647;49.382;7.078;2022-09-09T08:51:05;17.30;99.90
46900;DHT22;32647;49.382;7.078;2022-09-09T08:53:54;17.40;99.90
46900;DHT22;32647;49.382;7.078;2022-09-09T08:56:40;17.50;99.90
46900;DHT22;32647;49.382;7.078;2022-09-09T08:59:26;17.50;99.90
46900;DHT22;32647;49.382;7.078;2022-09-09T09:02:34;17.70;98.90
46900;DHT22;32647;49.382;7.078;2022-09-09T09:05:33;18.00;98.60
46900;DHT22;32647;49.382;7.078;2022-09-09T09:08:32;18.00;96.90
46900;DHT22;32647;49.382;7.078;2022-09-09T09:11:19;18.10;97.00
46900;DHT22;32647;49.382;7.078;2022-09-09T09:17:05;18.40;94.60
46900;DHT22;32647;49.382;7.078;2022-09-09T09:19:52;19.00;78.20
46900;DHT22;32647;49.382;7.078;2022-09-09T09:22:50;19.20;79.10
46900;DHT22;32647;49.382;7.078;2022-09-09T09:25:39;19.30;88.30
46900;DHT22;32647;49.382;7.078;2022-09-09T09:28:32;19.00;75.70
46900;DHT22;32647;49.382;7.078;2022-09-09T09:31:19;19.10;69.90
46900;DHT22;32647;49.382;7.078;2022-09-09T09:34:07;19.20;62.40
46900;DHT22;32647;49.382;7.078;2022-09-09T09:36:56;19.90;45.00
46900;DHT22;32647;49.382;7.078;2022-09-09T09:39:42;20.10;3.00
46900;DHT22;32647;49.382;7.078;2022-09-09T09:42:28;20.20;1.00
46900;DHT22;32647;49.382;7.078;2022-09-09T09:45:35;19.60;14.50
46900;DHT22;32647;49.382;7.078;2022-09-09T09:48:28;19.90;28.40
46900;DHT22;32647;49.382;7.078;2022-09-09T09:51:17;19.90;1.00
46900;DHT22;32647;49.382;7.078;2022-09-09T09:54:28;20.20;1.00
46900;DHT22;32647;49.382;7.078;2022-09-09T09:57:16;20.30;27.70
46900;DHT22;32647;49.382;7.078;2022-09-09T10:00:19;19.70;99.90
46900;DHT22;32647;49.382;7.078;2022-09-09T10:03:24;19.30;1.00
46900;DHT22;32647;49.382;7.078;2022-09-09T10:06:10;19.10;1.00
46900;DHT22;32647;49.382;7.078;2022-09-09T10:08:56;18.80;1.00
46900;DHT22;32647;49.382;7.078;2022-09-09T10:12:08;18.10;96.70
46900;DHT22;32647;49.382;7.078;2022-09-09T10:18:22;18.90;99.90
46900;DHT22;32647;49.382;7.078;2022-09-09T10:27:17;19.50;77.00
46900;DHT22;32647;49.382;7.078;2022-09-09T10:30:19;19.00;87.80
46900;DHT22;32647;49.382;7.078;2022-09-09T10:33:10;18.70;56.30
46900;DHT22;32647;49.382;7.078;2022-09-09T10:39:01;17.50;99.90
46900;DHT22;32647;49.382;7.078;2022-09-09T10:42:06;15.90;99.90
46900;DHT22;32647;49.382;7.078;2022-09-09T10:50:50;15.20;99.90
46900;DHT22;32647;49.382;7.078;2022-09-09T10:56:31;15.30;99.90
46900;DHT22;32647;49.382;7.078;2022-09-09T10:59:26;15.60;99.90
46900;DHT22;32647;49.382;7.078;2022-09-09T11:02:35;15.90;99.90
46900;DHT22;32647;49.382;7.078;2022-09-09T11:08:19;17.10;99.90
46900;DHT22;32647;49.382;7.078;2022-09-09T11:14:04;17.80;99.90
46900;DHT22;32647;49.382;7.078;2022-09-09T11:16:59;17.60;99.90
46900;DHT22;32647;49.382;7.078;2022-09-09T11:19:47;17.40;99.90
46900;DHT22;32647;49.382;7.078;2022-09-09T11:25:40;19.40;99.90
46900;DHT22;32647;49.382;7.078;2022-09-09T11:34:34;20.30;99.90
46900;DHT22;32647;49.382;7.078;2022-09-09T11:40:25;19.90;95.90
46900;DHT22;32647;49.382;7.078;2022-09-09T11:43:32;19.30;98.20
46900;DHT22;32647;49.382;7.078;2022-09-09T11:46:22;18.50;99.90
46900;DHT22;32647;49.382;7.078;2022-09-09T11:49:29;18.10;99.90
46900;DHT22;32647;49.382;7.078;2022-09-09T11:55:30;18.00;99.90
46900;DHT22;32647;49.382;7.078;2022-09-09T11:58:18;18.00;99.90
46900;DHT22;32647;49.382;7.078;2022-09-09T12:01:35;17.90;99.90
46900;DHT22;32647;49.382;7.078;2022-09-09T12:04:27;17.90;99.90
46900;DHT22;32647;49.382;7.078;2022-09-09T12:07:36;17.70;99.90
46900;DHT22;32647;49.382;7.078;2022-09-09T12:10:28;17.60;99.90
46900;DHT22;32647;49.382;7.078;2022-09-09T12:16:02;18.00;99.90
46900;DHT22;32647;49.382;7.078;2022-09-09T12:18:51;17.90;99.90
46900;DHT22;32647;49.382;7.078;2022-09-09T12:24:40;17.80;99.90
46900;DHT22;32647;49.382;7.078;2022-09-09T12:27:37;18.40;99.90
46900;DHT22;32647;49.382;7.078;2022-09-09T12:30:32;19.20;99.90
46900;DHT22;32647;49.382;7.078;2022-09-09T12:33:21;19.50;99.90
46900;DHT22;32647;49.382;7.078;2022-09-09T12:36:21;19.40;99.90
46900;DHT22;32647;49.382;7.078;2022-09-09T12:39:19;18.50;99.90
46900;DHT22;32647;49.382;7.078;2022-09-09T12:42:19;18.30;99.90
46900;DHT22;32647;49.382;7.078;2022-09-09T12:45:16;18.00;99.90
46900;DHT22;32647;49.382;7.078;2022-09-09T12:50:51;17.70;99.90
46900;DHT22;32647;49.382;7.078;2022-09-09T12:53:38;17.30;99.90
46900;DHT22;32647;49.382;7.078;2022-09-09T12:56:35;17.10;99.90
46900;DHT22;32647;49.382;7.078;2022-09-09T12:59:27;17.00;99.90
46900;DHT22;32647;49.382;7.078;2022-09-09T13:02:24;16.90;99.90
46900;DHT22;32647;49.382;7.078;2022-09-09T13:08:11;16.50;99.90
46900;DHT22;32647;49.382;7.078;2022-09-09T13:10:59;16.60;99.90
46900;DHT22;32647;49.382;7.078;2022-09-09T13:13:55;16.50;99.90
46900;DHT22;32647;49.382;7.078;2022-09-09T13:16:41;16.20;99.90
46900;DHT22;32647;49.382;7.078;2022-09-09T13:19:30;16.20;99.90
46900;DHT22;32647;49.382;7.078;2022-09-09T13:22:37;16.10;99.90
46900;DHT22;32647;49.382;7.078;2022-09-09T13:25:27;16.00;99.90
46900;DHT22;32647;49.382;7.078;2022-09-09T13:28:24;16.00;99.90
46900;DHT22;32647;49.382;7.078;2022-09-09T13:31:29;16.20;99.90
46900;DHT22;32647;49.382;7.078;2022-09-09T13:34:26;16.30;99.90
46900;DHT22;32647;49.382;7.078;2022-09-09T13:37:35;16.50;99.90
46900;DHT22;32647;49.382;7.078;2022-09-09T13:40:23;17.20;99.90
46900;DHT22;32647;49.382;7.078;2022-09-09T13:43:21;18.40;99.90
46900;DHT22;32647;49.382;7.078;2022-09-09T13:52:12;19.60;99.90
46900;DHT22;32647;49.382;7.078;2022-09-09T13:54:59;20.00;99.90
46900;DHT22;32647;49.382;7.078;2022-09-09T13:58:02;20.30;99.90
46900;DHT22;32647;49.382;7.078;2022-09-09T14:00:48;20.10;99.90
46900;DHT22;32647;49.382;7.078;2022-09-09T14:03:35;20.30;99.90
46900;DHT22;32647;49.382;7.078;2022-09-09T14:06:21;19.90;99.90
46900;DHT22;32647;49.382;7.078;2022-09-09T14:09:12;19.60;99.90
46900;DHT22;32647;49.382;7.078;2022-09-09T14:11:58;20.20;99.90
46900;DHT22;32647;49.382;7.078;2022-09-09T14:14:45;20.40;99.90
46900;DHT22;32647;49.382;7.078;2022-09-09T14:17:31;20.40;99.90
46900;DHT22;32647;49.382;7.078;2022-09-09T14:20:17;20.60;99.90
46900;DHT22;32647;49.382;7.078;2022-09-09T14:23:04;20.50;99.90
46900;DHT22;32647;49.382;7.078;2022-09-09T14:25:51;21.00;97.70
46900;DHT22;32647;49.382;7.078;2022-09-09T14:28:37;21.00;99.90
46900;DHT22;32647;49.382;7.078;2022-09-09T14:31:24;21.20;98.20
46900;DHT22;32647;49.382;7.078;2022-09-09T14:34:10;21.30;97.60
46900;DHT22;32647;49.382;7.078;2022-09-09T14:36:56;21.40;97.80
46900;DHT22;32647;49.382;7.078;2022-09-09T14:39:43;21.20;91.70
46900;DHT22;32647;49.382;7.078;2022-09-09T14:42:33;20.90;85.70
46900;DHT22;32647;49.382;7.078;2022-09-09T14:45:19;20.20;93.90
46900;DHT22;32647;49.382;7.078;2022-09-09T14:48:06;19.80;96.30
46900;DHT22;32647;49.382;7.078;2022-09-09T14:50:52;19.50;99.90
46900;DHT22;32647;49.382;7.078;2022-09-09T14:53:40;19.40;99.90
46900;DHT22;32647;49.382;7.078;2022-09-09T14:56:28;19.30;99.90
46900;DHT22;32647;49.382;7.078;2022-09-09T14:59:15;19.00;99.90
46900;DHT22;32647;49.382;7.078;2022-09-09T15:02:02;18.80;99.90
46900;DHT22;32647;49.382;7.078;2022-09-09T15:04:49;18.80;99.90
46900;DHT22;32647;49.382;7.078;2022-09-09T15:07:35;18.60;99.90
46900;DHT22;32647;49.382;7.078;2022-09-09T15:10:22;18.50;99.90
46900;DHT22;32647;49.382;7.078;2022-09-09T15:13:08;18.30;99.90
46900;DHT22;32647;49.382;7.078;2022-09-09T15:15:54;18.10;99.90
46900;DHT22;32647;49.382;7.078;2022-09-09T15:18:41;18.00;99.90
46900;DHT22;32647;49.382;7.078;2022-09-09T15:21:33;17.90;99.90
46900;DHT22;32647;49.382;7.078;2022-09-09T15:24:19;17.80;99.90
46900;DHT22;32647;49.382;7.078;2022-09-09T15:27:05;17.50;99.90
46900;DHT22;32647;49.382;7.078;2022-09-09T15:29:54;16.80;99.90
46900;DHT22;32647;49.382;7.078;2022-09-09T15:32:40;15.90;99.90
46900;DHT22;32647;49.382;7.078;2022-09-09T15:35:26;15.10;99.90
46900;DHT22;32647;49.382;7.078;2022-09-09T15:38:12;14.70;99.90
46900;DHT22;32647;49.382;7.078;2022-09-09T15:40:58;14.50;99.90
46900;DHT22;32647;49.382;7.078;2022-09-09T15:43:47;14.40;99.90
46900;DHT22;32647;49.382;7.078;2022-09-09T15:46:38;14.40;99.90
46900;DHT22;32647;49.382;7.078;2022-09-09T15:49:26;14.50;99.90
46900;DHT22;32647;49.382;7.078;2022-09-09T15:52:12;14.40;99.90
46900;DHT22;32647;49.382;7.078;2022-09-09T15:54:58;14.50;99.90
46900;DHT22;32647;49.382;7.078;2022-09-09T15:57:44;14.50;99.90
46900;DHT22;32647;49.382;7.078;2022-09-09T16:00:30;14.50;99.90
46900;DHT22;32647;49.382;7.078;2022-09-09T16:03:16;14.40;99.90
46900;DHT22;32647;49.382;7.078;2022-09-09T16:06:04;14.40;99.90
46900;DHT22;32647;49.382;7.078;2022-09-09T16:08:52;14.60;99.90
46900;DHT22;32647;49.382;7.078;2022-09-09T16:11:38;14.70;99.90
46900;DHT22;32647;49.382;7.078;2022-09-09T16:14:24;14.60;99.90
46900;DHT22;32647;49.382;7.078;2022-09-09T16:19:47;14.60;99.90
46900;DHT22;32647;49.382;7.078;2022-09-09T16:22:33;14.70;99.90
46900;DHT22;32647;49.382;7.078;2022-09-09T16:25:19;14.90;99.90
46900;DHT22;32647;49.382;7.078;2022-09-09T16:28:06;14.90;99.90
46900;DHT22;32647;49.382;7.078;2022-09-09T16:30:52;14.90;99.90
46900;DHT22;32647;49.382;7.078;2022-09-09T16:33:39;15.20;99.90
46900;DHT22;32647;49.382;7.078;2022-09-09T16:36:29;15.20;99.90
46900;DHT22;32647;49.382;7.078;2022-09-09T16:39:20;15.20;99.90
46900;DHT22;32647;49.382;7.078;2022-09-09T16:42:06;15.10;99.90
46900;DHT22;32647;49.382;7.078;2022-09-09T16:44:53;15.10;99.90
46900;DHT22;32647;49.382;7.078;2022-09-09T16:47:39;15.10;99.90
46900;DHT22;32647;49.382;7.078;2022-09-09T16:53:03;15.10;99.90
46900;DHT22;32647;49.382;7.078;2022-09-09T16:55:52;15.40;99.90
46900;DHT22;32647;49.382;7.078;2022-09-09T16:58:38;15.30;99.90
46900;DHT22;32647;49.382;7.078;2022-09-09T17:01:26;15.30;99.90
46900;DHT22;32647;49.382;7.078;2022-09-09T17:04:17;15.20;99.90
46900;DHT22;32647;49.382;7.078;2022-09-09T17:07:06;15.20;99.90
46900;DHT22;32647;49.382;7.078;2022-09-09T17:09:53;15.10;99.90
46900;DHT22;32647;49.382;7.078;2022-09-09T17:12:39;15.10;99.90
46900;DHT22;32647;49.382;7.078;2022-09-09T17:15:27;15.20;99.90
46900;DHT22;32647;49.382;7.078;2022-09-09T17:18:13;15.00;99.90
46900;DHT22;32647;49.382;7.078;2022-09-09T17:21:03;15.00;99.90
46900;DHT22;32647;49.382;7.078;2022-09-09T17:26:30;15.00;99.90
46900;DHT22;32647;49.382;7.078;2022-09-09T17:29:16;15.10;99.90
46900;DHT22;32647;49.382;7.078;2022-09-09T17:32:03;15.20;99.90
46900;DHT22;32647;49.382;7.078;2022-09-09T17:34:50;15.20;99.90
46900;DHT22;32647;49.382;7.078;2022-09-09T17:37:38;15.20;99.90
46900;DHT22;32647;49.382;7.078;2022-09-09T17:40:24;15.20;99.90
46900;DHT22;32647;49.382;7.078;2022-09-09T17:43:10;15.20;99.90
46900;DHT22;32647;49.382;7.078;2022-09-09T17:49:00;15.10;99.90
46900;DHT22;32647;49.382;7.078;2022-09-09T17:51:46;15.00;99.90
46900;DHT22;32647;49.382;7.078;2022-09-09T17:54:33;14.90;99.90
46900;DHT22;32647;49.382;7.078;2022-09-09T17:57:19;14.80;99.90
46900;DHT22;32647;49.382;7.078;2022-09-09T18:00:06;14.80;99.90
46900;DHT22;32647;49.382;7.078;2022-09-09T18:02:52;14.80;99.90
46900;DHT22;32647;49.382;7.078;2022-09-09T18:05:39;14.80;99.90
46900;DHT22;32647;49.382;7.078;2022-09-09T18:08:25;14.90;99.90
46900;DHT22;32647;49.382;7.078;2022-09-09T18:11:12;15.00;99.90
46900;DHT22;32647;49.382;7.078;2022-09-09T18:14:02;15.00;99.90
46900;DHT22;32647;49.382;7.078;2022-09-09T18:16:48;15.00;99.90
46900;DHT22;32647;49.382;7.078;2022-09-09T18:19:34;15.10;99.90
46900;DHT22;32647;49.382;7.078;2022-09-09T18:22:22;15.10;99.90
46900;DHT22;32647;49.382;7.078;2022-09-09T18:25:08;15.10;99.90
46900;DHT22;32647;49.382;7.078;2022-09-09T18:27:54;15.10;99.90
46900;DHT22;32647;49.382;7.078;2022-09-09T18:30:41;15.10;99.90
46900;DHT22;32647;49.382;7.078;2022-09-09T18:33:27;15.00;99.90
46900;DHT22;32647;49.382;7.078;2022-09-09T18:36:20;15.00;99.90
46900;DHT22;32647;49.382;7.078;2022-09-09T18:39:07;14.90;99.90
46900;DHT22;32647;49.382;7.078;2022-09-09T18:41:56;14.80;99.90
46900;DHT22;32647;49.382;7.078;2022-09-09T18:44:44;14.80;99.90
46900;DHT22;32647;49.382;7.078;2022-09-09T18:47:30;14.80;99.90
46900;DHT22;32647;49.382;7.078;2022-09-09T18:50:16;14.80;99.90
46900;DHT22;32647;49.382;7.078;2022-09-09T18:53:02;14.90;99.90
46900;DHT22;32647;49.382;7.078;2022-09-09T18:55:59;14.80;99.90
46900;DHT22;32647;49.382;7.078;2022-09-09T18:58:51;14.80;99.90
46900;DHT22;32647;49.382;7.078;2022-09-09T19:01:37;14.90;99.90
46900;DHT22;32647;49.382;7.078;2022-09-09T19:04:24;15.10;99.90
46900;DHT22;32647;49.382;7.078;2022-09-09T19:07:11;15.10;99.90
46900;DHT22;32647;49.382;7.078;2022-09-09T19:09:58;15.10;99.90
46900;DHT22;32647;49.382;7.078;2022-09-09T19:12:44;15.00;99.90
46900;DHT22;32647;49.382;7.078;2022-09-09T19:15:30;14.90;99.90
46900;DHT22;32647;49.382;7.078;2022-09-09T19:18:19;14.90;99.90
46900;DHT22;32647;49.382;7.078;2022-09-09T19:21:17;14.80;99.90
46900;DHT22;32647;49.382;7.078;2022-09-09T19:24:11;14.70;99.90
46900;DHT22;32647;49.382;7.078;2022-09-09T19:27:00;14.60;99.90
46900;DHT22;32647;49.382;7.078;2022-09-09T19:29:46;14.60;99.90
46900;DHT22;32647;49.382;7.078;2022-09-09T19:32:33;14.60;99.90
46900;DHT22;32647;49.382;7.078;2022-09-09T19:35:20;14.50;99.90
46900;DHT22;32647;49.382;7.078;2022-09-09T19:38:06;14.40;99.90
46900;DHT22;32647;49.382;7.078;2022-09-09T19:40:52;14.40;99.90
46900;DHT22;32647;49.382;7.078;2022-09-09T19:43:46;14.40;99.90
46900;DHT22;32647;49.382;7.078;2022-09-09T19:46:35;14.40;99.90